createdAt,value
2023-10-10T00:02:42.751Z,15.1
2023-10-10T00:08:38.521Z,15
2023-10-10T00:14:30.909Z,15.1
2023-10-10T00:20:23.327Z,15
2023-10-10T00:26:15.557Z,14.9
2023-10-10T00:32:07.825Z,14.8
2023-10-10T00:38:00.919Z,14.9
2023-10-10T00:43:52.217Z,14.7
2023-10-10T00:49:45.069Z,14.8
2023-10-10T00:55:35.584Z,14.9
2023-10-10T01:01:27.794Z,14.6
2023-10-10T01:07:20.325Z,14.7
2023-10-10T01:13:14.397Z,14.6
2023-10-10T01:19:07.998Z,14.4
2023-10-10T01:25:01.123Z,14.5
2023-10-10T01:30:53.576Z,14.5
2023-10-10T01:36:46.050Z,13.9
2023-10-10T01:42:38.175Z,14.4
2023-10-10T01:48:31.821Z,14.4
2023-10-10T01:54:25.383Z,14.2
2023-10-10T02:00:17.506Z,14.1
2023-10-10T02:06:07.721Z,14.2
2023-10-10T02:12:00.162Z,14.1
2023-10-10T02:17:54.562Z,14
2023-10-10T02:23:47.085Z,14.1
2023-10-10T02:29:39.161Z,14.1
2023-10-10T02:35:31.823Z,14.1
2023-10-10T02:41:24.394Z,14.2
2023-10-10T02:47:17.887Z,14.2
2023-10-10T02:53:11.565Z,14
2023-10-10T02:59:03.433Z,14.1
2023-10-10T03:04:56.604Z,14.1
2023-10-10T03:10:48.977Z,13.8
2023-10-10T03:16:43.511Z,13.8
2023-10-10T03:22:36.034Z,13.5
2023-10-10T03:28:29.742Z,13.5
2023-10-10T03:34:22.794Z,13.8
2023-10-10T03:40:17.351Z,13.6
2023-10-10T03:46:10.944Z,13.5
2023-10-10T03:52:03.032Z,13.5
2023-10-10T03:57:55.904Z,13.4
2023-10-10T04:03:50.107Z,13.2
2023-10-10T04:09:41.924Z,13.1
2023-10-10T04:15:34.451Z,13.5
2023-10-10T04:21:27.712Z,13.4
2023-10-10T04:27:20.219Z,13.5
2023-10-10T04:33:12.728Z,13.4
2023-10-10T04:39:07.339Z,13.5
2023-10-10T04:45:00.365Z,13.6
2023-10-10T04:50:55.204Z,13.6
2023-10-10T04:56:49.281Z,13.4
2023-10-10T05:02:41.194Z,13.5
2023-10-10T05:08:34.095Z,13.5
2023-10-10T05:14:27.994Z,13.4
2023-10-10T05:20:20.320Z,13.2
2023-10-10T05:26:12.907Z,13.3
2023-10-10T05:32:06.306Z,13.2
2023-10-10T05:37:59.166Z,13.3
2023-10-10T05:43:49.770Z,13.1
2023-10-10T05:49:41.554Z,13.4
2023-10-10T05:55:33.806Z,13.5
2023-10-10T06:01:28.433Z,13.5
2023-10-10T06:07:20.517Z,13.4
2023-10-10T06:13:14.160Z,13.5
2023-10-10T06:19:06.611Z,13.7
2023-10-10T06:25:02.406Z,13.8
2023-10-10T06:30:56.457Z,13.9
2023-10-10T06:36:50.570Z,14
2023-10-10T06:42:44.938Z,13.9
2023-10-10T06:48:36.823Z,14.1
2023-10-10T06:54:29.941Z,14
2023-10-10T07:00:22.955Z,14
2023-10-10T07:06:17.136Z,14.2
2023-10-10T07:12:08.295Z,14.3
2023-10-10T07:18:01.105Z,14.4
2023-10-10T07:23:53.979Z,14.4
2023-10-10T07:29:48.697Z,14.7
2023-10-10T07:35:41.185Z,14.8
2023-10-10T07:41:34.197Z,14.9
2023-10-10T07:47:28.665Z,15.1
2023-10-10T07:53:23.454Z,15.2
2023-10-10T07:59:16.389Z,15.4
2023-10-10T08:05:13.281Z,15.4
2023-10-10T08:11:03.643Z,15.6
2023-10-10T08:16:58.576Z,15.7
2023-10-10T08:22:51.369Z,15.9
2023-10-10T08:28:46.113Z,15.9
2023-10-10T08:34:38.527Z,16.1
2023-10-10T08:40:32.989Z,16.3
2023-10-10T08:46:29.004Z,16.4
2023-10-10T08:52:21.976Z,16.5
2023-10-10T08:58:14.360Z,16.6
2023-10-10T09:04:08.435Z,16.9
2023-10-10T09:10:02.450Z,17.1
2023-10-10T09:15:54.848Z,17.3
2023-10-10T09:21:49.486Z,17.4
2023-10-10T09:27:42.197Z,17.6
2023-10-10T09:33:35.135Z,17.6
2023-10-10T09:39:28.647Z,17.9
2023-10-10T09:45:20.586Z,18
2023-10-10T09:51:12.664Z,18.1
2023-10-10T09:57:04.594Z,18.3
2023-10-10T10:02:56.198Z,18.5
2023-10-10T10:08:48.287Z,18.6
2023-10-10T10:14:42.240Z,18.7
2023-10-10T10:20:36.318Z,18.8
2023-10-10T10:26:28.588Z,19
2023-10-10T10:32:21.161Z,19
2023-10-10T10:38:15.177Z,19.2
2023-10-10T10:44:08.470Z,19.4
2023-10-10T10:50:02.185Z,19.5
2023-10-10T10:55:55.419Z,19.6
2023-10-10T11:01:50.441Z,19.8
2023-10-10T11:07:43.327Z,20
2023-10-10T11:13:37.512Z,20.2
2023-10-10T11:19:30.065Z,20.3
2023-10-10T11:25:23.477Z,20.4
2023-10-10T11:31:18.822Z,20.6
2023-10-10T11:37:11.123Z,20.8
2023-10-10T11:43:07.529Z,21
2023-10-10T11:49:00.143Z,21.1
2023-10-10T11:54:52.720Z,21.2
2023-10-10T12:00:46.999Z,21.3
2023-10-10T12:06:43.303Z,21.5
2023-10-10T12:12:35.365Z,21.7
2023-10-10T12:18:28.517Z,21.8
2023-10-10T12:24:21.600Z,21.9
2023-10-10T12:30:14.682Z,22
2023-10-10T12:36:08.735Z,22.1
2023-10-10T12:42:03.487Z,22.1
2023-10-10T12:47:57.157Z,22.1
2023-10-10T12:53:51.278Z,22.3
2023-10-10T12:59:45.691Z,22.4
2023-10-10T13:05:41.264Z,22.3
2023-10-10T13:11:34.794Z,22.4
2023-10-10T13:17:28.771Z,22.4
2023-10-10T13:23:24.561Z,22.5
2023-10-10T13:29:18.467Z,22.7
2023-10-10T13:35:11.295Z,22.9
2023-10-10T13:41:06.357Z,22.9
2023-10-10T13:46:58.844Z,22.9
2023-10-10T13:52:51.698Z,23.1
2023-10-10T13:58:46.572Z,23.1
2023-10-10T14:04:40.511Z,23.2
2023-10-10T14:10:32.219Z,23.4
2023-10-10T14:16:23.232Z,23.4
2023-10-10T14:22:15.521Z,23.4
2023-10-10T14:28:12.872Z,23.5
2023-10-10T14:34:07.325Z,23.5
2023-10-10T14:39:59.609Z,23.6
2023-10-10T14:45:52.278Z,23.6
2023-10-10T14:51:45.458Z,23.6
2023-10-10T14:57:39.668Z,23.6
2023-10-10T15:03:31.618Z,23.7
2023-10-10T15:09:24.427Z,23.6
2023-10-10T15:15:19.485Z,23.6
2023-10-10T15:21:12.794Z,23.6
2023-10-10T15:27:06.271Z,23.6
2023-10-10T15:32:58.472Z,23.5
2023-10-10T15:38:50.507Z,23.4
2023-10-10T15:44:42.949Z,23.4
2023-10-10T15:50:38.340Z,23.4
2023-10-10T15:56:31.242Z,23.3
2023-10-10T16:02:23.333Z,23.2
2023-10-10T16:08:15.843Z,23
2023-10-10T16:14:10.613Z,23
2023-10-10T16:20:03.727Z,22.8
2023-10-10T16:25:56.088Z,22.8
2023-10-10T16:31:50.867Z,22.4
2023-10-10T16:37:44.928Z,22.2
2023-10-10T16:43:43.198Z,22
2023-10-10T16:49:51.298Z,21.7
2023-10-10T16:55:47.115Z,21.5
2023-10-10T17:01:37.946Z,21.1
2023-10-10T17:07:30.092Z,20.9
2023-10-10T17:13:22.470Z,20.8
2023-10-10T17:19:17.487Z,20.5
2023-10-10T17:25:09.618Z,20.4
2023-10-10T17:31:03.090Z,20.3
2023-10-10T17:36:54.496Z,20.1
2023-10-10T17:42:48.118Z,20
2023-10-10T17:48:42.791Z,19.7
2023-10-10T17:54:35.298Z,19.6
2023-10-10T18:00:31.735Z,19.4
2023-10-10T18:06:26.803Z,19.5
2023-10-10T18:12:18.223Z,19.4
2023-10-10T18:18:10.253Z,19.3
2023-10-10T18:24:03.353Z,19.2
2023-10-10T18:29:56.852Z,18.9
2023-10-10T18:35:49.883Z,18.8
2023-10-10T18:41:41.992Z,18.8
2023-10-10T18:47:37.385Z,18.9
2023-10-10T18:53:28.871Z,18.8
2023-10-10T18:59:20.991Z,18.7
2023-10-10T19:05:13.537Z,18.6
2023-10-10T19:11:06.486Z,18.7
2023-10-10T19:16:57.803Z,18.8
2023-10-10T19:22:49.823Z,18.5
2023-10-10T19:28:42.670Z,18.3
2023-10-10T19:34:34.912Z,18.6
2023-10-10T19:40:27.024Z,18.6
2023-10-10T19:46:19.776Z,18.7
2023-10-10T19:52:11.888Z,18.9
2023-10-10T19:58:04.153Z,18.9
2023-10-10T20:03:55.963Z,18.9
2023-10-10T20:09:51.487Z,19
2023-10-10T20:15:43.921Z,19
2023-10-10T20:21:35.790Z,18.9
2023-10-10T20:27:27.076Z,19
2023-10-10T20:33:19.652Z,19
2023-10-10T20:39:14.161Z,19.1
2023-10-10T20:45:06.139Z,19
2023-10-10T20:50:58.970Z,19
2023-10-10T20:56:52.090Z,19
2023-10-10T21:02:45.133Z,19
2023-10-10T21:08:43.343Z,19
2023-10-10T21:14:35.963Z,19
2023-10-10T21:20:29.195Z,18.9
2023-10-10T21:26:43.776Z,19
2023-10-10T21:32:38.192Z,19
2023-10-10T21:38:30.224Z,19
2023-10-10T21:44:22.789Z,19
2023-10-10T21:50:20.691Z,19
2023-10-10T21:56:13.276Z,19
2023-10-10T22:02:03.421Z,18.9
2023-10-10T22:07:57.553Z,18.9
2023-10-10T22:13:49.240Z,18.9
2023-10-10T22:19:43.184Z,18.8
2023-10-10T22:25:36.222Z,18.8
2023-10-10T22:31:29.618Z,18.8
2023-10-10T22:37:26.175Z,18.8
2023-10-10T22:43:18.724Z,18.6
2023-10-10T22:49:13.276Z,18.6
2023-10-10T22:55:05.391Z,18.5
2023-10-10T23:00:58.389Z,18.5
2023-10-10T23:06:51.079Z,18
2023-10-10T23:12:43.802Z,18.1
2023-10-10T23:18:36.104Z,18.1
2023-10-10T23:24:30.049Z,17.6
2023-10-10T23:30:23.975Z,17.7
2023-10-10T23:36:15.700Z,17.5
2023-10-10T23:42:08.054Z,17.3
2023-10-10T23:48:03.340Z,17.2
2023-10-10T23:53:56.044Z,17.1
2023-10-10T23:59:48.936Z,16.9
